sensor_id;sensor_type;location;lat;lon;timestamp;temperature;humidity
1594;DHT22;790;47.000;16.084;2024-03-08T00:00:14;5.30;99.90
1594;DHT22;790;47.000;16.084;2024-03-08T00:06:39;5.30;99.90
1594;DHT22;790;47.000;16.084;2024-03-08T00:13:01;5.30;99.90
1594;DHT22;790;47.000;16.084;2024-03-08T00:19:26;5.20;99.90
1594;DHT22;790;47.000;16.084;2024-03-08T00:25:47;5.30;99.90
1594;DHT22;790;47.000;16.084;2024-03-08T00:32:10;5.30;99.90
1594;DHT22;790;47.000;16.084;2024-03-08T00:38:33;5.30;99.90
1594;DHT22;790;47.000;16.084;2024-03-08T00:44:56;5.40;99.90
1594;DHT22;790;47.000;16.084;2024-03-08T00:51:19;5.50;99.90
1594;DHT22;790;47.000;16.084;2024-03-08T01:02:37;5.60;99.90
1594;DHT22;790;47.000;16.084;2024-03-08T01:08:59;5.70;99.90
1594;DHT22;790;47.000;16.084;2024-03-08T01:15:21;5.70;99.90
1594;DHT22;790;47.000;16.084;2024-03-08T01:21:45;5.60;99.90
1594;DHT22;790;47.000;16.084;2024-03-08T01:28:06;5.60;99.90
1594;DHT22;790;47.000;16.084;2024-03-08T01:34:29;5.50;99.90
1594;DHT22;790;47.000;16.084;2024-03-08T01:40:54;5.40;99.90
1594;DHT22;790;47.000;16.084;2024-03-08T01:47:16;5.50;99.90
1594;DHT22;790;47.000;16.084;2024-03-08T01:53:43;5.60;99.90
1594;DHT22;790;47.000;16.084;2024-03-08T02:05:02;5.50;99.90
1594;DHT22;790;47.000;16.084;2024-03-08T02:11:24;5.60;99.90
1594;DHT22;790;47.000;16.084;2024-03-08T02:17:48;5.60;99.90
1594;DHT22;790;47.000;16.084;2024-03-08T02:24:11;5.60;99.90
1594;DHT22;790;47.000;16.084;2024-03-08T02:30:34;5.50;99.90
1594;DHT22;790;47.000;16.084;2024-03-08T02:36:56;5.40;99.90
1594;DHT22;790;47.000;16.084;2024-03-08T02:43:20;5.30;99.90
1594;DHT22;790;47.000;16.084;2024-03-08T02:49:44;5.20;99.90
1594;DHT22;790;47.000;16.084;2024-03-08T02:56:07;4.80;99.90
1594;DHT22;790;47.000;16.084;2024-03-08T03:07:29;4.80;99.90
1594;DHT22;790;47.000;16.084;2024-03-08T03:13:52;5.00;99.90
1594;DHT22;790;47.000;16.084;2024-03-08T03:20:14;5.20;99.90
1594;DHT22;790;47.000;16.084;2024-03-08T03:26:44;5.40;99.90
1594;DHT22;790;47.000;16.084;2024-03-08T03:33:08;5.50;99.90
1594;DHT22;790;47.000;16.084;2024-03-08T03:39:33;5.50;99.90
1594;DHT22;790;47.000;16.084;2024-03-08T03:46:02;5.50;99.90
1594;DHT22;790;47.000;16.084;2024-03-08T03:52:25;5.50;99.90
1594;DHT22;790;47.000;16.084;2024-03-08T03:58:46;5.20;99.90
1594;DHT22;790;47.000;16.084;2024-03-08T04:10:09;4.70;99.90
1594;DHT22;790;47.000;16.084;2024-03-08T04:16:31;4.50;99.90
1594;DHT22;790;47.000;16.084;2024-03-08T04:22:54;4.50;99.90
1594;DHT22;790;47.000;16.084;2024-03-08T04:29:18;4.20;99.90
1594;DHT22;790;47.000;16.084;2024-03-08T04:35:40;4.10;99.90
1594;DHT22;790;47.000;16.084;2024-03-08T04:42:06;3.80;99.90
1594;DHT22;790;47.000;16.084;2024-03-08T04:48:31;3.70;99.90
1594;DHT22;790;47.000;16.084;2024-03-08T04:54:54;3.40;99.90
1594;DHT22;790;47.000;16.084;2024-03-08T05:01:15;3.30;99.90
1594;DHT22;790;47.000;16.084;2024-03-08T05:12:33;3.00;99.90
1594;DHT22;790;47.000;16.084;2024-03-08T05:18:55;2.80;99.90
1594;DHT22;790;47.000;16.084;2024-03-08T05:25:17;2.90;99.90
1594;DHT22;790;47.000;16.084;2024-03-08T05:31:46;2.90;99.90
1594;DHT22;790;47.000;16.084;2024-03-08T05:38:08;2.90;99.90
1594;DHT22;790;47.000;16.084;2024-03-08T05:44:32;2.80;99.90
1594;DHT22;790;47.000;16.084;2024-03-08T05:50:56;2.70;99.90
1594;DHT22;790;47.000;16.084;2024-03-08T05:57:19;2.90;99.90
1594;DHT22;790;47.000;16.084;2024-03-08T06:03:44;3.10;99.90
1594;DHT22;790;47.000;16.084;2024-03-08T06:15:04;3.40;99.90
1594;DHT22;790;47.000;16.084;2024-03-08T06:21:26;3.60;99.90
1594;DHT22;790;47.000;16.084;2024-03-08T06:27:48;3.80;99.90
1594;DHT22;790;47.000;16.084;2024-03-08T06:34:13;3.90;99.90
1594;DHT22;790;47.000;16.084;2024-03-08T06:40:35;4.00;99.90
1594;DHT22;790;47.000;16.084;2024-03-08T06:46:57;4.10;99.90
1594;DHT22;790;47.000;16.084;2024-03-08T06:53:22;4.20;99.90
1594;DHT22;790;47.000;16.084;2024-03-08T06:59:45;4.20;99.90
1594;DHT22;790;47.000;16.084;2024-03-08T07:06:08;4.30;99.90
1594;DHT22;790;47.000;16.084;2024-03-08T07:17:26;4.60;99.90
1594;DHT22;790;47.000;16.084;2024-03-08T07:23:49;4.60;99.90
1594;DHT22;790;47.000;16.084;2024-03-08T07:30:36;4.70;99.90
1594;DHT22;790;47.000;16.084;2024-03-08T07:37:16;4.80;99.90
1594;DHT22;790;47.000;16.084;2024-03-08T07:43:40;5.00;99.90
1594;DHT22;790;47.000;16.084;2024-03-08T07:50:03;5.30;99.90
1594;DHT22;790;47.000;16.084;2024-03-08T07:56:27;5.50;99.90
1594;DHT22;790;47.000;16.084;2024-03-08T08:02:50;5.70;99.90
1594;DHT22;790;47.000;16.084;2024-03-08T08:09:13;6.00;99.90
1594;DHT22;790;47.000;16.084;2024-03-08T08:20:31;6.20;99.90
1594;DHT22;790;47.000;16.084;2024-03-08T08:26:53;6.30;99.90
1594;DHT22;790;47.000;16.084;2024-03-08T08:33:14;6.50;99.90
1594;DHT22;790;47.000;16.084;2024-03-08T08:39:38;6.60;99.90
1594;DHT22;790;47.000;16.084;2024-03-08T08:46:30;6.70;99.90
1594;DHT22;790;47.000;16.084;2024-03-08T08:52:54;6.80;99.90
1594;DHT22;790;47.000;16.084;2024-03-08T08:59:17;6.90;99.90
1594;DHT22;790;47.000;16.084;2024-03-08T09:05:39;7.10;99.90
1594;DHT22;790;47.000;16.084;2024-03-08T09:12:03;7.30;99.90
1594;DHT22;790;47.000;16.084;2024-03-08T09:23:21;7.50;99.90
1594;DHT22;790;47.000;16.084;2024-03-08T09:29:44;7.70;99.90
1594;DHT22;790;47.000;16.084;2024-03-08T09:36:07;7.80;99.90
1594;DHT22;790;47.000;16.084;2024-03-08T09:42:30;7.90;99.90
1594;DHT22;790;47.000;16.084;2024-03-08T09:48:53;7.90;99.90
1594;DHT22;790;47.000;16.084;2024-03-08T09:55:16;8.00;99.90
1594;DHT22;790;47.000;16.084;2024-03-08T10:01:43;8.00;99.90
1594;DHT22;790;47.000;16.084;2024-03-08T10:08:05;7.90;99.90
1594;DHT22;790;47.000;16.084;2024-03-08T10:14:28;7.70;99.90
1594;DHT22;790;47.000;16.084;2024-03-08T10:25:45;8.20;99.90
1594;DHT22;790;47.000;16.084;2024-03-08T10:32:08;8.20;99.90
1594;DHT22;790;47.000;16.084;2024-03-08T10:38:31;8.30;99.90
1594;DHT22;790;47.000;16.084;2024-03-08T10:45:01;8.20;99.90
1594;DHT22;790;47.000;16.084;2024-03-08T10:51:25;8.20;99.90
1594;DHT22;790;47.000;16.084;2024-03-08T10:57:48;8.10;99.90
1594;DHT22;790;47.000;16.084;2024-03-08T11:04:13;8.00;99.90
1594;DHT22;790;47.000;16.084;2024-03-08T11:10:46;8.20;99.90
1594;DHT22;790;47.000;16.084;2024-03-08T11:17:13;8.10;99.90
1594;DHT22;790;47.000;16.084;2024-03-08T11:28:32;8.50;99.90
1594;DHT22;790;47.000;16.084;2024-03-08T11:34:55;8.60;99.90
1594;DHT22;790;47.000;16.084;2024-03-08T11:41:18;8.80;99.90
1594;DHT22;790;47.000;16.084;2024-03-08T11:47:43;8.80;99.90
1594;DHT22;790;47.000;16.084;2024-03-08T11:54:11;8.90;99.90
1594;DHT22;790;47.000;16.084;2024-03-08T12:00:34;8.90;99.90
1594;DHT22;790;47.000;16.084;2024-03-08T12:07:01;9.10;99.90
1594;DHT22;790;47.000;16.084;2024-03-08T12:13:31;9.20;99.90
1594;DHT22;790;47.000;16.084;2024-03-08T12:19:55;9.50;99.90
1594;DHT22;790;47.000;16.084;2024-03-08T12:31:13;9.40;99.90
1594;DHT22;790;47.000;16.084;2024-03-08T12:37:38;9.70;99.90
1594;DHT22;790;47.000;16.084;2024-03-08T12:44:00;9.70;99.90
1594;DHT22;790;47.000;16.084;2024-03-08T12:50:24;9.70;99.90
1594;DHT22;790;47.000;16.084;2024-03-08T12:56:47;9.80;99.90
1594;DHT22;790;47.000;16.084;2024-03-08T13:03:11;9.90;99.90
1594;DHT22;790;47.000;16.084;2024-03-08T13:09:34;9.90;99.90
1594;DHT22;790;47.000;16.084;2024-03-08T13:15:58;9.80;99.90
1594;DHT22;790;47.000;16.084;2024-03-08T13:22:21;9.80;99.90
1594;DHT22;790;47.000;16.084;2024-03-08T13:33:39;9.80;99.90
1594;DHT22;790;47.000;16.084;2024-03-08T13:40:03;9.80;99.90
1594;DHT22;790;47.000;16.084;2024-03-08T13:46:26;10.00;99.90
1594;DHT22;790;47.000;16.084;2024-03-08T13:52:49;10.10;99.90
1594;DHT22;790;47.000;16.084;2024-03-08T13:59:14;10.10;99.90
1594;DHT22;790;47.000;16.084;2024-03-08T14:05:39;10.10;99.90
1594;DHT22;790;47.000;16.084;2024-03-08T14:12:03;10.10;99.90
1594;DHT22;790;47.000;16.084;2024-03-08T14:18:28;10.00;99.90
1594;DHT22;790;47.000;16.084;2024-03-08T14:24:51;10.20;99.90
1594;DHT22;790;47.000;16.084;2024-03-08T14:36:11;9.90;99.90
1594;DHT22;790;47.000;16.084;2024-03-08T14:42:34;9.80;99.90
1594;DHT22;790;47.000;16.084;2024-03-08T14:48:56;9.80;99.90
1594;DHT22;790;47.000;16.084;2024-03-08T14:55:20;9.80;99.90
1594;DHT22;790;47.000;16.084;2024-03-08T15:01:43;9.70;99.90
1594;DHT22;790;47.000;16.084;2024-03-08T15:08:05;9.80;99.90
1594;DHT22;790;47.000;16.084;2024-03-08T15:14:32;9.80;99.90
1594;DHT22;790;47.000;16.084;2024-03-08T15:20:55;9.90;99.90
1594;DHT22;790;47.000;16.084;2024-03-08T15:27:18;9.80;99.90
1594;DHT22;790;47.000;16.084;2024-03-08T15:38:36;9.90;99.90
1594;DHT22;790;47.000;16.084;2024-03-08T15:44:58;9.70;99.90
1594;DHT22;790;47.000;16.084;2024-03-08T15:51:22;9.60;99.90
1594;DHT22;790;47.000;16.084;2024-03-08T15:57:46;9.50;99.90
1594;DHT22;790;47.000;16.084;2024-03-08T16:04:10;9.40;99.90
1594;DHT22;790;47.000;16.084;2024-03-08T16:10:32;9.40;99.90
1594;DHT22;790;47.000;16.084;2024-03-08T16:16:55;9.40;99.90
1594;DHT22;790;47.000;16.084;2024-03-08T16:23:18;9.20;99.90
1594;DHT22;790;47.000;16.084;2024-03-08T16:29:41;9.00;99.90
1594;DHT22;790;47.000;16.084;2024-03-08T16:41:00;8.80;99.90
1594;DHT22;790;47.000;16.084;2024-03-08T16:47:24;8.70;99.90
1594;DHT22;790;47.000;16.084;2024-03-08T16:53:46;8.50;99.90
1594;DHT22;790;47.000;16.084;2024-03-08T17:00:13;8.30;99.90
1594;DHT22;790;47.000;16.084;2024-03-08T17:06:39;8.20;99.90
1594;DHT22;790;47.000;16.084;2024-03-08T17:13:01;8.10;99.90
1594;DHT22;790;47.000;16.084;2024-03-08T17:19:27;8.00;99.90
1594;DHT22;790;47.000;16.084;2024-03-08T17:25:50;7.90;99.90
1594;DHT22;790;47.000;16.084;2024-03-08T17:32:13;7.90;99.90
1594;DHT22;790;47.000;16.084;2024-03-08T17:43:33;7.90;99.90
1594;DHT22;790;47.000;16.084;2024-03-08T17:49:56;7.90;99.90
1594;DHT22;790;47.000;16.084;2024-03-08T17:56:20;7.90;99.90
1594;DHT22;790;47.000;16.084;2024-03-08T18:02:45;7.90;99.90
1594;DHT22;790;47.000;16.084;2024-03-08T18:09:11;7.90;99.90
1594;DHT22;790;47.000;16.084;2024-03-08T18:15:33;7.90;99.90
1594;DHT22;790;47.000;16.084;2024-03-08T18:21:57;8.00;99.90
1594;DHT22;790;47.000;16.084;2024-03-08T18:28:53;7.90;99.90
1594;DHT22;790;47.000;16.084;2024-03-08T18:35:16;7.80;99.90
1594;DHT22;790;47.000;16.084;2024-03-08T18:46:36;7.90;99.90
1594;DHT22;790;47.000;16.084;2024-03-08T18:53:02;7.80;99.90
1594;DHT22;790;47.000;16.084;2024-03-08T18:59:28;7.70;99.90
1594;DHT22;790;47.000;16.084;2024-03-08T19:05:51;7.50;99.90
1594;DHT22;790;47.000;16.084;2024-03-08T19:12:15;7.30;99.90
1594;DHT22;790;47.000;16.084;2024-03-08T19:18:39;7.00;99.90
1594;DHT22;790;47.000;16.084;2024-03-08T19:25:03;6.70;99.90
1594;DHT22;790;47.000;16.084;2024-03-08T19:31:28;6.50;99.90
1594;DHT22;790;47.000;16.084;2024-03-08T19:37:52;6.60;99.90
1594;DHT22;790;47.000;16.084;2024-03-08T19:49:39;6.40;99.90
1594;DHT22;790;47.000;16.084;2024-03-08T19:56:02;6.40;99.90
1594;DHT22;790;47.000;16.084;2024-03-08T20:02:26;6.60;99.90
1594;DHT22;790;47.000;16.084;2024-03-08T20:08:49;6.60;99.90
1594;DHT22;790;47.000;16.084;2024-03-08T20:15:14;6.60;99.90
1594;DHT22;790;47.000;16.084;2024-03-08T20:21:36;6.70;99.90
1594;DHT22;790;47.000;16.084;2024-03-08T20:28:00;6.70;99.90
1594;DHT22;790;47.000;16.084;2024-03-08T20:34:25;6.70;99.90
1594;DHT22;790;47.000;16.084;2024-03-08T20:40:48;6.90;99.90
1594;DHT22;790;47.000;16.084;2024-03-08T20:52:07;7.00;99.90
1594;DHT22;790;47.000;16.084;2024-03-08T20:58:30;7.10;99.90
1594;DHT22;790;47.000;16.084;2024-03-08T21:04:52;7.10;99.90
1594;DHT22;790;47.000;16.084;2024-03-08T21:11:16;7.10;99.90
1594;DHT22;790;47.000;16.084;2024-03-08T21:17:39;7.10;99.90
1594;DHT22;790;47.000;16.084;2024-03-08T21:24:02;7.00;99.90
1594;DHT22;790;47.000;16.084;2024-03-08T21:30:27;7.00;99.90
1594;DHT22;790;47.000;16.084;2024-03-08T21:36:50;7.00;99.90
1594;DHT22;790;47.000;16.084;2024-03-08T21:43:12;7.00;99.90
1594;DHT22;790;47.000;16.084;2024-03-08T21:54:30;7.00;99.90
1594;DHT22;790;47.000;16.084;2024-03-08T22:00:54;7.00;99.90
1594;DHT22;790;47.000;16.084;2024-03-08T22:07:16;7.00;99.90
1594;DHT22;790;47.000;16.084;2024-03-08T22:13:41;7.00;99.90
1594;DHT22;790;47.000;16.084;2024-03-08T22:20:06;7.10;99.90
1594;DHT22;790;47.000;16.084;2024-03-08T22:26:36;7.00;99.90
1594;DHT22;790;47.000;16.084;2024-03-08T22:33:00;6.80;99.90
1594;DHT22;790;47.000;16.084;2024-03-08T22:39:23;6.70;99.90
1594;DHT22;790;47.000;16.084;2024-03-08T22:45:45;6.60;99.90
1594;DHT22;790;47.000;16.084;2024-03-08T22:57:05;6.10;99.90
1594;DHT22;790;47.000;16.084;2024-03-08T23:03:28;6.00;99.90
1594;DHT22;790;47.000;16.084;2024-03-08T23:09:52;5.90;99.90
1594;DHT22;790;47.000;16.084;2024-03-08T23:16:16;6.10;99.90
1594;DHT22;790;47.000;16.084;2024-03-08T23:22:41;6.40;99.90
1594;DHT22;790;47.000;16.084;2024-03-08T23:29:07;6.50;99.90
1594;DHT22;790;47.000;16.084;2024-03-08T23:35:31;6.60;99.90
1594;DHT22;790;47.000;16.084;2024-03-08T23:41:53;6.60;99.90
1594;DHT22;790;47.000;16.084;2024-03-08T23:48:15;6.50;99.90
1594;DHT22;790;47.000;16.084;2024-03-08T23:59:33;6.50;99.90
